Dale, Texas
Current Conditions -  °F | °C
As of 4:15 AM on Monday 26 Jan 2015 (Local Time) from KHYI Reporting Station
Clear Clear  
Wind Chill: 37°   Ceiling: Unl
Heat Index: 43°   Visibility: 10mi
Dew Point: 34°   Wind: 12mph
Humidity: 70%   Direction: 300°WNW
Pressure: 30.23"   Gusts: NA
Location:  29.93°N, 97.57°W
Report Text: KHYI 261015Z 30010KT 10SM CLR 06/01 A3023 RMK AO1
Loading
Personal Weather Stations






























Interactive Weather Map New forecast layout! Learn more

10-Day Weather Forecast

Advertisements
Track Severe Weather on mobile